createdAt,value
2023-02-16T00:00:24.354Z,-0.30
2023-02-16T00:02:51.366Z,-0.40
2023-02-16T00:05:31.351Z,-0.40
2023-02-16T00:08:00.336Z,-0.30
2023-02-16T00:10:33.832Z,-0.30
2023-02-16T00:13:19.928Z,-0.30
2023-02-16T00:15:47.292Z,-0.30
2023-02-16T00:18:21.226Z,-0.30
2023-02-16T00:20:51.034Z,-0.30
2023-02-16T00:23:17.994Z,-0.30
2023-02-16T00:25:45.098Z,-0.30
2023-02-16T00:28:21.068Z,-0.40
2023-02-16T00:30:50.370Z,-0.40
2023-02-16T00:33:21.170Z,-0.40
2023-02-16T00:35:49.067Z,-0.40
2023-02-16T00:38:16.169Z,-0.30
2023-02-16T00:40:43.546Z,-0.30
2023-02-16T00:43:26.376Z,-0.30
2023-02-16T00:45:53.832Z,-0.20
2023-02-16T00:48:21.782Z,-0.30
2023-02-16T00:50:49.321Z,-0.30
2023-02-16T00:53:16.581Z,-0.30
2023-02-16T00:55:44.577Z,-0.40
2023-02-16T00:58:23.556Z,0.10
2023-02-16T01:00:59.111Z,-0.30
2023-02-16T01:03:29.707Z,-0.10
2023-02-16T01:06:14.942Z,-0.30
2023-02-16T01:09:01.259Z,0.10
2023-02-16T01:11:29.127Z,-0.30
2023-02-16T01:13:57.646Z,-0.20
2023-02-16T01:16:36.391Z,-0.30
2023-02-16T01:19:04.521Z,0.20
2023-02-16T01:21:31.529Z,-0.30
2023-02-16T01:23:58.691Z,-0.40
2023-02-16T01:26:25.736Z,-0.30
2023-02-16T01:28:52.800Z,-0.40
2023-02-16T01:31:19.883Z,-0.40
2023-02-16T01:33:46.912Z,-0.40
2023-02-16T01:36:43.790Z,-0.40
2023-02-16T01:39:15.820Z,-0.20
2023-02-16T01:42:16.572Z,-0.40
2023-02-16T01:44:58.861Z,-0.30
2023-02-16T01:47:51.556Z,-0.30
2023-02-16T01:50:26.054Z,-0.30
2023-02-16T01:53:04.480Z,-0.30
2023-02-16T01:55:40.955Z,-0.30
2023-02-16T01:58:51.266Z,-0.30
2023-02-16T02:01:53.382Z,-0.40
2023-02-16T02:05:22.562Z,-0.40
2023-02-16T02:07:53.895Z,-0.40
2023-02-16T02:10:52.392Z,-0.40
2023-02-16T02:13:36.960Z,-0.40
2023-02-16T02:16:06.756Z,-0.40
2023-02-16T02:18:34.152Z,-0.40
2023-02-16T02:22:03.299Z,0.20
2023-02-16T02:24:39.141Z,-0.50
2023-02-16T02:27:31.833Z,-0.40
2023-02-16T02:30:37.668Z,-0.40
2023-02-16T02:33:41.581Z,-0.40
2023-02-16T02:36:28.161Z,-0.40
2023-02-16T02:39:42.337Z,-0.40
2023-02-16T02:42:18.715Z,-0.50
2023-02-16T02:45:28.402Z,-0.50
2023-02-16T02:47:55.522Z,-0.40
2023-02-16T02:51:07.264Z,-0.40
2023-02-16T02:54:23.415Z,-0.30
2023-02-16T02:57:14.943Z,-0.40
2023-02-16T03:00:06.474Z,-0.50
2023-02-16T03:02:35.915Z,-0.50
2023-02-16T03:05:06.280Z,-0.50
2023-02-16T03:07:48.332Z,-0.50
2023-02-16T03:10:51.096Z,-0.50
2023-02-16T03:13:44.613Z,-0.50
2023-02-16T03:16:18.062Z,-0.50
2023-02-16T03:19:06.554Z,-0.50
2023-02-16T03:21:54.680Z,-0.40
2023-02-16T03:24:47.268Z,-0.50
2023-02-16T03:27:43.541Z,0.00
2023-02-16T03:30:12.542Z,-0.50
2023-02-16T03:32:39.805Z,-0.50
2023-02-16T03:35:07.351Z,0.00
2023-02-16T03:37:34.498Z,-0.60
2023-02-16T03:40:20.077Z,-0.60
2023-02-16T03:42:53.139Z,-0.50
2023-02-16T03:45:22.181Z,-0.50
2023-02-16T03:47:49.531Z,-0.60
2023-02-16T03:50:16.914Z,-0.60
2023-02-16T03:52:44.029Z,-0.60
2023-02-16T03:55:11.004Z,-0.60
2023-02-16T03:57:38.178Z,-0.60
2023-02-16T04:00:06.412Z,-0.60
2023-02-16T04:02:33.449Z,-0.60
2023-02-16T04:05:00.446Z,-0.60
2023-02-16T04:07:27.600Z,-0.50
2023-02-16T04:09:54.600Z,-0.60
2023-02-16T04:12:36.456Z,-0.70
2023-02-16T04:15:19.887Z,-0.70
2023-02-16T04:17:47.344Z,-0.70
2023-02-16T04:20:18.913Z,0.10
2023-02-16T04:22:46.911Z,-0.40
2023-02-16T04:25:15.801Z,-0.60
2023-02-16T04:27:43.676Z,-0.70
2023-02-16T04:30:21.077Z,-0.70
2023-02-16T04:32:48.535Z,-0.70
2023-02-16T04:35:16.501Z,-0.90
2023-02-16T04:37:43.670Z,-0.70
2023-02-16T04:40:15.230Z,-0.70
2023-02-16T04:42:43.752Z,-0.80
2023-02-16T04:45:11.460Z,-0.80
2023-02-16T04:47:38.497Z,-0.80
2023-02-16T04:50:06.565Z,-0.80
2023-02-16T04:52:34.428Z,-0.80
2023-02-16T04:55:01.450Z,-0.80
2023-02-16T04:57:28.758Z,-0.80
2023-02-16T04:59:55.743Z,-0.70
2023-02-16T05:02:22.850Z,-0.60
2023-02-16T05:04:49.911Z,-0.50
2023-02-16T05:07:16.972Z,-0.70
2023-02-16T05:09:43.958Z,-0.40
2023-02-16T05:12:30.495Z,-0.50
2023-02-16T05:14:57.462Z,-0.60
2023-02-16T05:17:26.658Z,-0.50
2023-02-16T05:20:00.484Z,-0.60
2023-02-16T05:22:33.596Z,-0.60
2023-02-16T05:25:02.065Z,-0.60
2023-02-16T05:27:31.379Z,-0.60
2023-02-16T05:29:59.320Z,-0.60
2023-02-16T05:32:26.898Z,-0.50
2023-02-16T05:34:53.968Z,-0.60
2023-02-16T05:37:21.274Z,-0.60
2023-02-16T05:39:48.890Z,-0.20
2023-02-16T05:42:15.867Z,-0.40
2023-02-16T05:44:42.856Z,-0.50
2023-02-16T05:47:09.841Z,-0.60
2023-02-16T05:49:36.862Z,-0.40
2023-02-16T05:52:03.897Z,-0.60
2023-02-16T05:54:30.984Z,-0.50
2023-02-16T05:56:57.968Z,0.00
2023-02-16T05:59:25.053Z,-0.50
2023-02-16T06:01:52.672Z,0.00
2023-02-16T06:04:21.532Z,-0.60
2023-02-16T06:06:48.925Z,-0.60
2023-02-16T06:12:03.041Z,-0.60
2023-02-16T06:14:30.041Z,-0.50
2023-02-16T06:16:58.856Z,-0.70
2023-02-16T06:19:26.242Z,-0.70
2023-02-16T06:21:53.292Z,-0.60
2023-02-16T06:24:20.286Z,-0.60
2023-02-16T06:26:47.444Z,-0.70
2023-02-16T06:29:15.770Z,-0.70
2023-02-16T06:31:43.176Z,-0.80
2023-02-16T06:34:10.367Z,-0.80
2023-02-16T06:36:37.452Z,-0.20
2023-02-16T06:39:04.652Z,-0.80
2023-02-16T06:41:31.992Z,-0.40
2023-02-16T06:44:06.270Z,-0.20
2023-02-16T06:46:33.476Z,-0.80
2023-02-16T06:49:01.295Z,-0.90
2023-02-16T06:51:28.783Z,-1.10
2023-02-16T06:53:55.989Z,-1.00
2023-02-16T06:56:23.704Z,-1.00
2023-02-16T06:58:51.383Z,-1.00
2023-02-16T07:01:23.298Z,-1.00
2023-02-16T07:03:52.806Z,-1.00
2023-02-16T07:06:20.752Z,-1.00
2023-02-16T07:08:47.911Z,-1.00
2023-02-16T07:11:15.569Z,-0.90
2023-02-16T07:13:42.626Z,-0.20
2023-02-16T07:16:10.170Z,-0.60
2023-02-16T07:18:37.473Z,-0.80
2023-02-16T07:21:05.411Z,-0.90
2023-02-16T07:23:34.099Z,-1.00
2023-02-16T07:26:01.275Z,-1.00
2023-02-16T07:28:28.632Z,-0.90
2023-02-16T07:30:55.641Z,-0.90
2023-02-16T07:33:23.165Z,-0.80
2023-02-16T07:35:50.407Z,-0.70
2023-02-16T07:38:17.460Z,-0.50
2023-02-16T07:40:44.579Z,-0.70
2023-02-16T07:43:11.756Z,-0.60
2023-02-16T07:45:38.809Z,0.20
2023-02-16T07:48:05.990Z,0.20
2023-02-16T07:50:33.070Z,-0.70
2023-02-16T07:53:03.053Z,0.20
2023-02-16T07:55:30.661Z,-0.50
2023-02-16T07:57:57.779Z,0.20
2023-02-16T08:00:26.847Z,0.20
2023-02-16T08:02:54.277Z,-0.50
2023-02-16T08:05:21.781Z,0.40
2023-02-16T08:07:49.070Z,0.40
2023-02-16T08:10:16.929Z,0.40
2023-02-16T08:12:44.639Z,-0.30
2023-02-16T08:15:12.229Z,0.30
2023-02-16T08:17:39.459Z,0.10
2023-02-16T08:20:09.894Z,0.30
2023-02-16T08:22:37.716Z,-0.40
2023-02-16T08:25:06.973Z,0.20
2023-02-16T08:27:34.371Z,-0.30
2023-02-16T08:30:01.510Z,0.40
2023-02-16T08:32:28.655Z,0.20
2023-02-16T08:34:57.480Z,-0.10
2023-02-16T08:37:25.127Z,0.50
2023-02-16T08:39:52.198Z,0.30
2023-02-16T08:42:19.945Z,0.50
2023-02-16T08:44:47.352Z,0.20
2023-02-16T08:47:14.735Z,0.70
2023-02-16T08:49:42.061Z,0.30
2023-02-16T08:52:10.841Z,0.10
2023-02-16T08:54:38.854Z,0.10
2023-02-16T08:57:06.369Z,0.70
2023-02-16T08:59:34.989Z,0.90
2023-02-16T09:02:02.262Z,0.80
2023-02-16T09:04:30.054Z,1.40
2023-02-16T09:06:58.573Z,0.50
2023-02-16T09:09:27.208Z,0.70
2023-02-16T09:11:54.751Z,0.40
2023-02-16T09:14:23.456Z,0.40
2023-02-16T09:16:50.757Z,0.70
2023-02-16T09:19:21.558Z,0.50
2023-02-16T09:21:51.045Z,1.00
2023-02-16T09:24:18.415Z,1.20
2023-02-16T09:26:45.536Z,1.40
2023-02-16T09:29:13.995Z,0.90
2023-02-16T09:31:42.700Z,0.90
2023-02-16T09:34:18.880Z,0.70
2023-02-16T09:36:55.724Z,0.80
2023-02-16T09:39:22.919Z,1.00
2023-02-16T09:41:59.744Z,1.50
2023-02-16T09:44:41.147Z,1.20
2023-02-16T09:47:29.548Z,1.20
2023-02-16T09:50:43.873Z,1.30
2023-02-16T09:53:32.964Z,1.40
2023-02-16T09:56:25.784Z,1.50
2023-02-16T09:59:14.712Z,1.60
2023-02-16T10:02:17.712Z,1.60
2023-02-16T10:05:17.597Z,1.70
2023-02-16T10:07:57.652Z,1.80
2023-02-16T10:10:54.849Z,1.80
2023-02-16T10:13:54.159Z,2.10
2023-02-16T10:16:32.762Z,2.30
2023-02-16T10:19:04.377Z,3.00
2023-02-16T10:21:32.625Z,2.40
2023-02-16T10:24:06.520Z,2.80
2023-02-16T10:26:46.729Z,2.90
2023-02-16T10:29:23.361Z,2.80
2023-02-16T10:32:11.819Z,3.60
2023-02-16T10:34:49.230Z,3.00
2023-02-16T10:37:31.500Z,3.30
2023-02-16T10:40:26.526Z,3.30
2023-02-16T10:43:11.126Z,3.50
2023-02-16T10:45:52.441Z,3.10
2023-02-16T10:48:21.763Z,3.20
2023-02-16T10:51:12.691Z,3.70
2023-02-16T10:53:52.626Z,3.90
2023-02-16T10:56:46.006Z,3.50
2023-02-16T10:59:19.841Z,3.90
2023-02-16T11:01:59.209Z,4.20
2023-02-16T11:04:52.676Z,4.10
2023-02-16T11:07:25.051Z,4.40
2023-02-16T11:09:56.046Z,4.10
2023-02-16T11:12:36.847Z,4.20
2023-02-16T11:15:08.447Z,4.40
2023-02-16T11:18:08.135Z,4.40
2023-02-16T11:20:45.169Z,4.70
2023-02-16T11:23:40.775Z,4.60
2023-02-16T11:26:22.882Z,4.80
2023-02-16T11:28:52.040Z,4.90
2023-02-16T11:31:37.548Z,5.10
2023-02-16T11:34:37.756Z,5.40
2023-02-16T11:37:31.108Z,5.50
2023-02-16T11:40:19.931Z,5.80
2023-02-16T11:42:57.506Z,5.90
2023-02-16T11:45:33.050Z,6.00
2023-02-16T11:48:12.422Z,6.00
2023-02-16T11:51:04.183Z,6.20
2023-02-16T11:53:35.178Z,6.60
2023-02-16T11:56:24.749Z,6.80
2023-02-16T11:59:16.361Z,6.90
2023-02-16T12:02:14.551Z,7.10
2023-02-16T12:05:19.516Z,7.20
2023-02-16T12:08:16.675Z,7.30
2023-02-16T12:11:17.430Z,7.70
2023-02-16T12:14:18.339Z,7.70
2023-02-16T12:17:17.754Z,7.60
2023-02-16T12:19:49.389Z,7.70
2023-02-16T12:22:37.791Z,7.80
2023-02-16T12:25:26.297Z,7.80
2023-02-16T12:28:17.466Z,7.80
2023-02-16T12:31:22.860Z,7.70
2023-02-16T12:34:48.892Z,8.00
2023-02-16T12:38:13.869Z,8.60
2023-02-16T12:41:00.871Z,8.90
2023-02-16T12:43:52.355Z,8.90
2023-02-16T12:46:30.723Z,9.20
2023-02-16T12:49:12.272Z,9.30
2023-02-16T12:51:53.506Z,9.60
2023-02-16T12:54:40.101Z,9.70
2023-02-16T12:57:21.393Z,9.90
2023-02-16T13:00:18.102Z,10.00
2023-02-16T13:02:57.090Z,9.80
2023-02-16T13:05:36.314Z,10.00
2023-02-16T13:08:31.576Z,10.10
2023-02-16T13:11:08.806Z,9.80
2023-02-16T13:13:36.879Z,10.10
2023-02-16T13:16:28.967Z,10.30
2023-02-16T13:18:57.330Z,10.30
2023-02-16T13:21:53.403Z,10.40
2023-02-16T13:24:34.349Z,10.30
2023-02-16T13:27:30.805Z,10.20
2023-02-16T13:30:30.376Z,10.20
2023-02-16T13:33:59.643Z,10.50
2023-02-16T13:37:18.960Z,10.70
2023-02-16T13:40:28.308Z,10.90
2023-02-16T13:43:05.141Z,11.10
2023-02-16T13:45:39.259Z,11.00
2023-02-16T13:48:29.234Z,10.80
2023-02-16T13:51:18.837Z,10.70
2023-02-16T13:53:58.057Z,10.80
2023-02-16T13:56:31.164Z,10.90
2023-02-16T13:59:18.695Z,11.00
2023-02-16T14:01:50.787Z,10.80
2023-02-16T14:04:23.830Z,11.00
2023-02-16T14:07:18.444Z,11.00
2023-02-16T14:09:50.956Z,10.90
2023-02-16T14:12:32.110Z,10.70
2023-02-16T14:15:03.752Z,10.60
2023-02-16T14:17:36.520Z,10.70
2023-02-16T14:20:09.676Z,10.70
2023-02-16T14:22:59.851Z,10.60
2023-02-16T14:25:30.952Z,10.60
2023-02-16T14:28:31.899Z,10.60
2023-02-16T14:31:12.697Z,10.70
2023-02-16T14:34:28.297Z,10.50
2023-02-16T14:37:17.280Z,10.40
2023-02-16T14:40:06.468Z,10.40
2023-02-16T14:42:36.254Z,10.40
2023-02-16T14:45:12.374Z,10.20
2023-02-16T14:48:23.636Z,10.10
2023-02-16T14:51:41.721Z,10.10
2023-02-16T14:54:37.410Z,10.00
2023-02-16T14:57:46.081Z,9.80
2023-02-16T15:00:51.593Z,9.70
2023-02-16T15:03:25.647Z,9.60
2023-02-16T15:06:04.549Z,9.50
2023-02-16T15:08:37.436Z,9.40
2023-02-16T15:11:27.710Z,9.20
2023-02-16T15:14:16.404Z,9.20
2023-02-16T15:16:45.039Z,9.00
2023-02-16T15:19:27.187Z,9.00
2023-02-16T15:22:19.555Z,8.80
2023-02-16T15:25:29.352Z,8.70
2023-02-16T15:28:12.551Z,8.70
2023-02-16T15:30:42.930Z,8.60
2023-02-16T15:33:23.932Z,8.60
2023-02-16T15:36:00.731Z,8.60
2023-02-16T15:38:40.440Z,8.50
2023-02-16T15:41:14.705Z,8.50
2023-02-16T15:43:48.362Z,8.50
2023-02-16T15:46:35.276Z,8.40
2023-02-16T15:49:33.054Z,8.40
2023-02-16T15:52:01.455Z,8.40
2023-02-16T15:54:35.601Z,8.30
2023-02-16T15:57:15.877Z,8.50
2023-02-16T15:59:54.433Z,8.40
2023-02-16T16:02:35.904Z,8.50
2023-02-16T16:05:19.985Z,8.30
2023-02-16T16:07:47.665Z,8.30
2023-02-16T16:10:21.835Z,8.40
2023-02-16T16:12:58.521Z,8.10
2023-02-16T16:15:27.960Z,8.10
2023-02-16T16:17:59.836Z,8.00
2023-02-16T16:20:42.307Z,8.00
2023-02-16T16:23:15.302Z,8.00
2023-02-16T16:25:45.967Z,7.90
2023-02-16T16:28:29.251Z,7.90
2023-02-16T16:31:20.974Z,8.00
2023-02-16T16:34:04.673Z,7.80
2023-02-16T16:36:36.916Z,7.80
2023-02-16T16:39:11.318Z,7.80
2023-02-16T16:41:40.295Z,7.80
2023-02-16T16:44:13.689Z,7.90
2023-02-16T16:46:40.805Z,7.90
2023-02-16T16:49:16.666Z,7.80
2023-02-16T16:51:44.325Z,7.80
2023-02-16T16:54:22.125Z,7.80
2023-02-16T16:56:49.178Z,7.70
2023-02-16T16:59:17.579Z,7.60
2023-02-16T17:01:46.621Z,7.60
2023-02-16T17:04:13.862Z,7.60
2023-02-16T17:06:41.873Z,7.60
2023-02-16T17:09:09.290Z,7.60
2023-02-16T17:11:38.573Z,7.60
2023-02-16T17:14:15.634Z,7.50
2023-02-16T17:16:46.350Z,7.60
2023-02-16T17:19:15.916Z,7.50
2023-02-16T17:21:44.325Z,7.50
2023-02-16T17:24:12.194Z,7.50
2023-02-16T17:26:40.237Z,7.50
2023-02-16T17:29:08.719Z,7.50
2023-02-16T17:31:36.350Z,7.40
2023-02-16T17:34:03.894Z,7.40
2023-02-16T17:36:31.993Z,7.40
2023-02-16T17:38:59.205Z,7.40
2023-02-16T17:41:29.464Z,7.50
2023-02-16T17:43:56.971Z,7.50
2023-02-16T17:46:25.673Z,7.50
2023-02-16T17:48:58.173Z,7.50
2023-02-16T17:51:26.704Z,7.50
2023-02-16T17:53:54.128Z,7.80
2023-02-16T17:56:23.900Z,8.00
2023-02-16T17:58:51.980Z,8.20
2023-02-16T18:01:20.799Z,8.30
2023-02-16T18:03:48.916Z,8.20
2023-02-16T18:06:18.949Z,8.30
2023-02-16T18:08:46.365Z,8.40
2023-02-16T18:11:14.154Z,8.50
2023-02-16T18:13:42.022Z,8.50
2023-02-16T18:16:14.785Z,8.60
2023-02-16T18:18:42.133Z,8.80
2023-02-16T18:21:09.601Z,8.70
2023-02-16T18:23:37.047Z,8.60
2023-02-16T18:26:06.748Z,8.70
2023-02-16T18:28:35.223Z,8.60
2023-02-16T18:31:06.806Z,8.70
2023-02-16T18:33:35.013Z,8.80
2023-02-16T18:36:04.085Z,8.90
2023-02-16T18:38:32.728Z,8.90
2023-02-16T18:41:00.778Z,9.00
2023-02-16T18:43:28.201Z,8.90
2023-02-16T18:45:56.165Z,8.80
2023-02-16T18:48:23.899Z,8.90
2023-02-16T18:50:51.828Z,8.90
2023-02-16T18:53:19.841Z,8.80
2023-02-16T18:55:48.601Z,8.70
2023-02-16T18:58:16.990Z,8.70
2023-02-16T19:00:44.305Z,8.60
2023-02-16T19:03:11.654Z,8.60
2023-02-16T19:05:38.944Z,8.70
2023-02-16T19:08:06.280Z,8.60
2023-02-16T19:10:33.922Z,8.60
2023-02-16T19:13:02.287Z,8.40
2023-02-16T19:15:34.122Z,8.30
2023-02-16T19:18:01.421Z,8.50
2023-02-16T19:20:31.922Z,8.50
2023-02-16T19:22:59.069Z,8.60
2023-02-16T19:25:26.882Z,8.60
2023-02-16T19:27:54.014Z,8.50
2023-02-16T19:30:22.237Z,8.30
2023-02-16T19:32:49.354Z,8.30
2023-02-16T19:35:16.560Z,8.30
2023-02-16T19:37:43.668Z,8.30
2023-02-16T19:40:14.411Z,8.30
2023-02-16T19:42:41.424Z,8.20
2023-02-16T19:45:08.944Z,8.10
2023-02-16T19:47:36.168Z,8.00
2023-02-16T19:50:03.807Z,8.00
2023-02-16T19:52:30.828Z,7.90
2023-02-16T19:54:59.156Z,8.10
2023-02-16T19:57:26.090Z,8.00
2023-02-16T19:59:53.103Z,7.90
2023-02-16T20:02:24.780Z,7.90
2023-02-16T20:04:54.478Z,7.80
2023-02-16T20:07:21.416Z,7.80
2023-02-16T20:09:48.348Z,7.80
2023-02-16T20:12:15.569Z,8.10
2023-02-16T20:14:55.840Z,8.30
2023-02-16T20:17:23.228Z,8.30
2023-02-16T20:19:50.572Z,8.40
2023-02-16T20:22:18.928Z,8.40
2023-02-16T20:24:46.217Z,8.40
2023-02-16T20:27:14.785Z,8.40
2023-02-16T20:29:41.845Z,8.40
2023-02-16T20:32:08.984Z,8.60
2023-02-16T20:34:36.066Z,8.50
2023-02-16T20:37:03.368Z,8.50
2023-02-16T20:39:30.427Z,8.40
2023-02-16T20:41:58.510Z,8.40
2023-02-16T20:44:27.157Z,8.50
2023-02-16T20:46:54.422Z,8.50
2023-02-16T20:49:21.548Z,8.50
2023-02-16T20:51:48.739Z,8.50
2023-02-16T20:54:17.442Z,8.30
2023-02-16T20:56:44.463Z,8.30
2023-02-16T20:59:12.639Z,8.30
2023-02-16T21:01:46.683Z,8.20
2023-02-16T21:04:16.881Z,8.20
2023-02-16T21:06:45.211Z,8.10
2023-02-16T21:09:13.010Z,8.20
2023-02-16T21:11:40.398Z,8.10
2023-02-16T21:14:10.502Z,8.10
2023-02-16T21:16:38.207Z,8.00
2023-02-16T21:19:17.289Z,8.10
2023-02-16T21:21:49.627Z,8.10
2023-02-16T21:24:16.661Z,8.10
2023-02-16T21:26:43.873Z,8.10
2023-02-16T21:29:11.002Z,8.40
2023-02-16T21:31:38.172Z,8.50
2023-02-16T21:34:05.807Z,8.40
2023-02-16T21:36:33.440Z,8.30
2023-02-16T21:39:02.949Z,8.30
2023-02-16T21:41:30.651Z,8.50
2023-02-16T21:44:09.337Z,8.50
2023-02-16T21:46:43.382Z,8.50
2023-02-16T21:49:18.317Z,8.70
2023-02-16T21:51:47.233Z,8.70
2023-02-16T21:54:17.477Z,8.80
2023-02-16T21:56:50.334Z,8.80
2023-02-16T21:59:24.609Z,9.00
2023-02-16T22:01:52.123Z,8.90
2023-02-16T22:04:22.258Z,8.90
2023-02-16T22:06:51.275Z,9.10
2023-02-16T22:09:21.633Z,9.30
2023-02-16T22:11:49.399Z,9.10
2023-02-16T22:14:16.865Z,9.10
2023-02-16T22:16:46.656Z,9.10
2023-02-16T22:19:17.284Z,9.10
2023-02-16T22:21:46.866Z,9.20
2023-02-16T22:24:16.014Z,9.20
2023-02-16T22:26:43.111Z,9.00
2023-02-16T22:29:12.445Z,9.10
2023-02-16T22:31:46.917Z,9.20
2023-02-16T22:34:18.226Z,9.20
2023-02-16T22:36:45.907Z,9.20
2023-02-16T22:39:14.979Z,9.30
2023-02-16T22:41:42.182Z,9.20
2023-02-16T22:44:11.577Z,9.10
2023-02-16T22:46:38.816Z,9.10
2023-02-16T22:49:05.790Z,9.10
2023-02-16T22:51:32.910Z,9.20
2023-02-16T22:54:01.810Z,9.20
2023-02-16T22:56:30.023Z,9.30
2023-02-16T22:58:58.494Z,9.50
2023-02-16T23:01:28.937Z,9.40
2023-02-16T23:03:58.048Z,9.40
2023-02-16T23:06:34.807Z,9.50
2023-02-16T23:09:07.493Z,9.60
2023-02-16T23:11:35.908Z,9.90
2023-02-16T23:14:03.561Z,10.30
2023-02-16T23:16:30.904Z,10.40
2023-02-16T23:19:00.012Z,10.30
2023-02-16T23:21:30.614Z,10.30
2023-02-16T23:23:58.865Z,10.40
2023-02-16T23:26:30.214Z,10.70
2023-02-16T23:29:01.659Z,10.90
2023-02-16T23:31:33.817Z,11.00
2023-02-16T23:34:02.545Z,11.00
2023-02-16T23:36:36.298Z,10.70
2023-02-16T23:39:11.013Z,10.60
2023-02-16T23:41:38.143Z,10.60
2023-02-16T23:44:06.857Z,10.90
2023-02-16T23:46:35.054Z,10.90
2023-02-16T23:49:02.137Z,10.90
2023-02-16T23:51:29.384Z,11.10
2023-02-16T23:53:56.864Z,11.00
2023-02-16T23:56:27.149Z,10.90
2023-02-16T23:58:59.799Z,10.90
